sensor_id;sensor_type;location;lat;lon;timestamp;temperature;humidity
2391;DHT22;22957;50.824;4.360;2023-07-28T00:01:59;19.80;99.90
2391;DHT22;22957;50.824;4.360;2023-07-28T00:04:25;19.70;99.90
2391;DHT22;22957;50.824;4.360;2023-07-28T00:06:50;19.90;99.90
2391;DHT22;22957;50.824;4.360;2023-07-28T00:09:16;19.80;99.90
2391;DHT22;22957;50.824;4.360;2023-07-28T00:11:41;19.70;99.90
2391;DHT22;22957;50.824;4.360;2023-07-28T00:14:07;19.60;99.90
2391;DHT22;22957;50.824;4.360;2023-07-28T00:16:32;19.60;99.90
2391;DHT22;22957;50.824;4.360;2023-07-28T00:18:58;19.70;99.90
2391;DHT22;22957;50.824;4.360;2023-07-28T00:21:23;19.70;99.90
2391;DHT22;22957;50.824;4.360;2023-07-28T00:23:49;19.60;99.90
2391;DHT22;22957;50.824;4.360;2023-07-28T00:26:14;19.90;99.90
2391;DHT22;22957;50.824;4.360;2023-07-28T00:28:40;19.80;99.90
2391;DHT22;22957;50.824;4.360;2023-07-28T00:31:05;19.60;99.90
2391;DHT22;22957;50.824;4.360;2023-07-28T00:33:31;19.60;99.90
2391;DHT22;22957;50.824;4.360;2023-07-28T00:35:56;19.60;99.90
2391;DHT22;22957;50.824;4.360;2023-07-28T00:38:22;19.40;99.90
2391;DHT22;22957;50.824;4.360;2023-07-28T00:40:47;19.70;99.90
2391;DHT22;22957;50.824;4.360;2023-07-28T00:43:13;19.60;99.90
2391;DHT22;22957;50.824;4.360;2023-07-28T00:45:39;19.80;99.90
2391;DHT22;22957;50.824;4.360;2023-07-28T00:48:11;19.80;99.90
2391;DHT22;22957;50.824;4.360;2023-07-28T00:50:38;20.00;99.90
2391;DHT22;22957;50.824;4.360;2023-07-28T00:53:04;20.10;99.90
2391;DHT22;22957;50.824;4.360;2023-07-28T00:55:30;19.80;99.90
2391;DHT22;22957;50.824;4.360;2023-07-28T00:57:56;19.80;99.90
2391;DHT22;22957;50.824;4.360;2023-07-28T01:00:22;19.80;99.90
2391;DHT22;22957;50.824;4.360;2023-07-28T01:02:48;19.80;99.90
2391;DHT22;22957;50.824;4.360;2023-07-28T01:05:13;19.90;99.90
2391;DHT22;22957;50.824;4.360;2023-07-28T01:08:02;19.80;99.90
2391;DHT22;22957;50.824;4.360;2023-07-28T01:10:32;19.80;99.90
2391;DHT22;22957;50.824;4.360;2023-07-28T01:12:58;19.80;99.90
2391;DHT22;22957;50.824;4.360;2023-07-28T01:15:24;20.00;99.90
2391;DHT22;22957;50.824;4.360;2023-07-28T01:17:50;20.00;99.90
2391;DHT22;22957;50.824;4.360;2023-07-28T01:20:16;20.00;99.90
2391;DHT22;22957;50.824;4.360;2023-07-28T01:23:07;20.00;99.90
2391;DHT22;22957;50.824;4.360;2023-07-28T01:26:02;20.10;99.90
2391;DHT22;22957;50.824;4.360;2023-07-28T01:28:30;20.00;99.90
2391;DHT22;22957;50.824;4.360;2023-07-28T01:30:57;20.00;99.90
2391;DHT22;22957;50.824;4.360;2023-07-28T01:33:23;19.90;99.90
2391;DHT22;22957;50.824;4.360;2023-07-28T01:35:48;19.90;99.90
2391;DHT22;22957;50.824;4.360;2023-07-28T01:38:14;19.90;99.90
2391;DHT22;22957;50.824;4.360;2023-07-28T01:40:39;20.20;99.90
2391;DHT22;22957;50.824;4.360;2023-07-28T01:43:05;20.10;99.90
2391;DHT22;22957;50.824;4.360;2023-07-28T01:45:30;20.00;99.90
2391;DHT22;22957;50.824;4.360;2023-07-28T01:47:56;20.10;99.90
2391;DHT22;22957;50.824;4.360;2023-07-28T01:50:21;19.70;99.90
2391;DHT22;22957;50.824;4.360;2023-07-28T01:52:47;19.80;99.90
2391;DHT22;22957;50.824;4.360;2023-07-28T01:55:12;19.70;99.90
2391;DHT22;22957;50.824;4.360;2023-07-28T01:57:39;19.60;99.90
2391;DHT22;22957;50.824;4.360;2023-07-28T02:00:06;19.70;99.90
2391;DHT22;22957;50.824;4.360;2023-07-28T02:02:31;19.60;99.90
2391;DHT22;22957;50.824;4.360;2023-07-28T02:04:57;19.70;99.90
2391;DHT22;22957;50.824;4.360;2023-07-28T02:07:23;19.70;99.90
2391;DHT22;22957;50.824;4.360;2023-07-28T02:09:48;19.70;99.90
2391;DHT22;22957;50.824;4.360;2023-07-28T02:12:14;19.90;99.90
2391;DHT22;22957;50.824;4.360;2023-07-28T02:14:39;20.10;99.90
2391;DHT22;22957;50.824;4.360;2023-07-28T02:17:05;20.00;99.90
2391;DHT22;22957;50.824;4.360;2023-07-28T02:19:31;20.00;99.90
2391;DHT22;22957;50.824;4.360;2023-07-28T02:21:56;20.10;99.90
2391;DHT22;22957;50.824;4.360;2023-07-28T02:24:22;19.80;99.90
2391;DHT22;22957;50.824;4.360;2023-07-28T02:26:47;19.70;99.90
2391;DHT22;22957;50.824;4.360;2023-07-28T02:29:13;19.80;99.90
2391;DHT22;22957;50.824;4.360;2023-07-28T02:31:38;19.80;99.90
2391;DHT22;22957;50.824;4.360;2023-07-28T02:34:04;20.00;99.90
2391;DHT22;22957;50.824;4.360;2023-07-28T02:36:29;19.90;99.90
2391;DHT22;22957;50.824;4.360;2023-07-28T02:38:55;19.90;99.90
2391;DHT22;22957;50.824;4.360;2023-07-28T02:41:21;20.10;99.90
2391;DHT22;22957;50.824;4.360;2023-07-28T02:43:46;20.00;99.90
2391;DHT22;22957;50.824;4.360;2023-07-28T02:46:12;19.80;99.90
2391;DHT22;22957;50.824;4.360;2023-07-28T02:48:37;19.80;99.90
2391;DHT22;22957;50.824;4.360;2023-07-28T02:51:03;19.70;99.90
2391;DHT22;22957;50.824;4.360;2023-07-28T02:53:28;19.80;99.90
2391;DHT22;22957;50.824;4.360;2023-07-28T02:55:54;19.80;99.90
2391;DHT22;22957;50.824;4.360;2023-07-28T02:58:21;19.80;99.90
2391;DHT22;22957;50.824;4.360;2023-07-28T03:00:47;19.80;99.90
2391;DHT22;22957;50.824;4.360;2023-07-28T03:03:12;20.10;99.90
2391;DHT22;22957;50.824;4.360;2023-07-28T03:05:39;20.10;99.90
2391;DHT22;22957;50.824;4.360;2023-07-28T03:08:05;20.10;99.90
2391;DHT22;22957;50.824;4.360;2023-07-28T03:10:31;19.90;99.90
2391;DHT22;22957;50.824;4.360;2023-07-28T03:12:56;20.00;99.90
2391;DHT22;22957;50.824;4.360;2023-07-28T03:15:22;20.10;99.90
2391;DHT22;22957;50.824;4.360;2023-07-28T03:17:49;20.00;99.90
2391;DHT22;22957;50.824;4.360;2023-07-28T03:20:15;20.10;99.90
2391;DHT22;22957;50.824;4.360;2023-07-28T03:22:40;20.00;99.90
2391;DHT22;22957;50.824;4.360;2023-07-28T03:25:06;20.10;99.90
2391;DHT22;22957;50.824;4.360;2023-07-28T03:27:31;19.90;99.90
2391;DHT22;22957;50.824;4.360;2023-07-28T03:29:57;20.00;99.90
2391;DHT22;22957;50.824;4.360;2023-07-28T03:32:23;19.90;99.90
2391;DHT22;22957;50.824;4.360;2023-07-28T03:34:48;19.80;99.90
2391;DHT22;22957;50.824;4.360;2023-07-28T03:37:14;19.70;99.90
2391;DHT22;22957;50.824;4.360;2023-07-28T03:39:39;19.80;99.90
2391;DHT22;22957;50.824;4.360;2023-07-28T03:42:05;19.90;99.90
2391;DHT22;22957;50.824;4.360;2023-07-28T03:44:31;19.80;99.90
2391;DHT22;22957;50.824;4.360;2023-07-28T03:46:56;20.00;99.90
2391;DHT22;22957;50.824;4.360;2023-07-28T03:49:22;19.90;99.90
2391;DHT22;22957;50.824;4.360;2023-07-28T03:51:47;20.00;99.90
2391;DHT22;22957;50.824;4.360;2023-07-28T03:54:13;19.90;99.90
2391;DHT22;22957;50.824;4.360;2023-07-28T03:56:38;20.00;99.90
2391;DHT22;22957;50.824;4.360;2023-07-28T03:59:04;19.90;99.90
2391;DHT22;22957;50.824;4.360;2023-07-28T04:01:31;20.10;99.90
2391;DHT22;22957;50.824;4.360;2023-07-28T04:03:56;19.90;99.90
2391;DHT22;22957;50.824;4.360;2023-07-28T04:06:43;19.80;99.90
2391;DHT22;22957;50.824;4.360;2023-07-28T04:09:09;19.90;99.90
2391;DHT22;22957;50.824;4.360;2023-07-28T04:11:35;20.00;99.90
2391;DHT22;22957;50.824;4.360;2023-07-28T04:14:01;19.90;99.90
2391;DHT22;22957;50.824;4.360;2023-07-28T04:16:26;20.00;99.90
2391;DHT22;22957;50.824;4.360;2023-07-28T04:18:52;20.20;99.90
2391;DHT22;22957;50.824;4.360;2023-07-28T04:21:17;20.00;99.90
2391;DHT22;22957;50.824;4.360;2023-07-28T04:23:43;20.10;99.90
2391;DHT22;22957;50.824;4.360;2023-07-28T04:26:09;20.10;99.90
2391;DHT22;22957;50.824;4.360;2023-07-28T04:28:34;20.00;99.90
2391;DHT22;22957;50.824;4.360;2023-07-28T04:31:00;20.00;99.90
2391;DHT22;22957;50.824;4.360;2023-07-28T04:33:26;20.20;99.90
2391;DHT22;22957;50.824;4.360;2023-07-28T04:35:51;20.40;99.90
2391;DHT22;22957;50.824;4.360;2023-07-28T04:38:17;20.30;99.90
2391;DHT22;22957;50.824;4.360;2023-07-28T04:40:44;20.40;99.90
2391;DHT22;22957;50.824;4.360;2023-07-28T04:43:09;20.20;99.90
2391;DHT22;22957;50.824;4.360;2023-07-28T04:45:35;20.10;99.90
2391;DHT22;22957;50.824;4.360;2023-07-28T04:48:00;20.20;99.90
2391;DHT22;22957;50.824;4.360;2023-07-28T04:50:26;20.40;99.90
2391;DHT22;22957;50.824;4.360;2023-07-28T04:52:52;20.30;99.90
2391;DHT22;22957;50.824;4.360;2023-07-28T04:55:17;20.40;99.90
2391;DHT22;22957;50.824;4.360;2023-07-28T04:57:43;20.30;99.90
2391;DHT22;22957;50.824;4.360;2023-07-28T05:00:09;20.30;99.90
2391;DHT22;22957;50.824;4.360;2023-07-28T05:02:35;20.30;99.90
2391;DHT22;22957;50.824;4.360;2023-07-28T05:05:00;20.30;99.90
2391;DHT22;22957;50.824;4.360;2023-07-28T05:07:26;20.10;99.90
2391;DHT22;22957;50.824;4.360;2023-07-28T05:09:51;20.10;99.90
2391;DHT22;22957;50.824;4.360;2023-07-28T05:12:17;20.10;99.90
2391;DHT22;22957;50.824;4.360;2023-07-28T05:14:43;20.40;99.90
2391;DHT22;22957;50.824;4.360;2023-07-28T05:17:08;20.20;99.90
2391;DHT22;22957;50.824;4.360;2023-07-28T05:19:34;20.10;99.90
2391;DHT22;22957;50.824;4.360;2023-07-28T05:22:00;20.30;99.90
2391;DHT22;22957;50.824;4.360;2023-07-28T05:24:25;20.40;99.90
2391;DHT22;22957;50.824;4.360;2023-07-28T05:26:51;20.20;99.90
2391;DHT22;22957;50.824;4.360;2023-07-28T05:29:16;20.10;99.90
2391;DHT22;22957;50.824;4.360;2023-07-28T05:31:42;20.20;99.90
2391;DHT22;22957;50.824;4.360;2023-07-28T05:34:07;20.30;99.90
2391;DHT22;22957;50.824;4.360;2023-07-28T05:36:33;20.30;99.90
2391;DHT22;22957;50.824;4.360;2023-07-28T05:38:59;20.30;99.90
2391;DHT22;22957;50.824;4.360;2023-07-28T05:41:24;20.20;99.90
2391;DHT22;22957;50.824;4.360;2023-07-28T05:43:50;20.30;99.90
2391;DHT22;22957;50.824;4.360;2023-07-28T05:46:16;20.40;99.90
2391;DHT22;22957;50.824;4.360;2023-07-28T05:48:41;20.50;99.90
2391;DHT22;22957;50.824;4.360;2023-07-28T05:51:07;20.60;99.90
2391;DHT22;22957;50.824;4.360;2023-07-28T05:53:32;20.50;99.90
2391;DHT22;22957;50.824;4.360;2023-07-28T05:55:58;20.50;99.90
2391;DHT22;22957;50.824;4.360;2023-07-28T05:58:23;20.40;99.90
2391;DHT22;22957;50.824;4.360;2023-07-28T06:00:49;20.50;99.90
2391;DHT22;22957;50.824;4.360;2023-07-28T06:03:15;20.30;99.90
2391;DHT22;22957;50.824;4.360;2023-07-28T06:05:41;20.30;99.90
2391;DHT22;22957;50.824;4.360;2023-07-28T06:08:08;20.30;99.90
2391;DHT22;22957;50.824;4.360;2023-07-28T06:10:34;20.40;99.90
2391;DHT22;22957;50.824;4.360;2023-07-28T06:12:59;20.10;99.90
2391;DHT22;22957;50.824;4.360;2023-07-28T06:15:25;20.20;99.90
2391;DHT22;22957;50.824;4.360;2023-07-28T06:17:51;20.30;99.90
2391;DHT22;22957;50.824;4.360;2023-07-28T06:20:16;20.30;99.90
2391;DHT22;22957;50.824;4.360;2023-07-28T06:22:42;20.30;99.90
2391;DHT22;22957;50.824;4.360;2023-07-28T06:25:07;20.70;99.90
2391;DHT22;22957;50.824;4.360;2023-07-28T06:27:33;20.60;99.90
2391;DHT22;22957;50.824;4.360;2023-07-28T06:29:59;20.70;99.90
2391;DHT22;22957;50.824;4.360;2023-07-28T06:32:24;20.60;99.90
2391;DHT22;22957;50.824;4.360;2023-07-28T06:34:50;20.70;99.90
2391;DHT22;22957;50.824;4.360;2023-07-28T06:37:17;20.60;99.90
2391;DHT22;22957;50.824;4.360;2023-07-28T06:39:42;20.60;99.90
2391;DHT22;22957;50.824;4.360;2023-07-28T06:42:08;20.70;99.90
2391;DHT22;22957;50.824;4.360;2023-07-28T06:44:33;20.90;99.90
2391;DHT22;22957;50.824;4.360;2023-07-28T06:46:59;21.10;99.90
2391;DHT22;22957;50.824;4.360;2023-07-28T06:49:24;21.20;99.90
2391;DHT22;22957;50.824;4.360;2023-07-28T06:51:50;21.30;99.90
2391;DHT22;22957;50.824;4.360;2023-07-28T06:54:16;21.30;99.90
2391;DHT22;22957;50.824;4.360;2023-07-28T06:56:41;21.40;99.90
2391;DHT22;22957;50.824;4.360;2023-07-28T06:59:07;21.40;99.90
2391;DHT22;22957;50.824;4.360;2023-07-28T07:01:33;21.40;99.90
2391;DHT22;22957;50.824;4.360;2023-07-28T07:03:59;21.40;99.90
2391;DHT22;22957;50.824;4.360;2023-07-28T07:06:25;21.30;99.90
2391;DHT22;22957;50.824;4.360;2023-07-28T07:08:50;21.30;99.90
2391;DHT22;22957;50.824;4.360;2023-07-28T07:11:16;21.20;99.90
2391;DHT22;22957;50.824;4.360;2023-07-28T07:13:41;21.20;99.90
2391;DHT22;22957;50.824;4.360;2023-07-28T07:16:16;21.20;99.90
2391;DHT22;22957;50.824;4.360;2023-07-28T07:18:43;21.10;99.90
2391;DHT22;22957;50.824;4.360;2023-07-28T07:21:09;21.10;99.90
2391;DHT22;22957;50.824;4.360;2023-07-28T07:23:35;21.20;99.90
2391;DHT22;22957;50.824;4.360;2023-07-28T07:26:01;21.20;99.90
2391;DHT22;22957;50.824;4.360;2023-07-28T07:28:26;21.20;99.90
2391;DHT22;22957;50.824;4.360;2023-07-28T07:30:54;21.10;99.90
2391;DHT22;22957;50.824;4.360;2023-07-28T07:33:19;21.20;99.90
2391;DHT22;22957;50.824;4.360;2023-07-28T07:35:45;21.20;99.90
2391;DHT22;22957;50.824;4.360;2023-07-28T07:38:10;21.00;99.90
2391;DHT22;22957;50.824;4.360;2023-07-28T07:40:36;21.30;99.90
2391;DHT22;22957;50.824;4.360;2023-07-28T07:43:02;21.90;99.90
2391;DHT22;22957;50.824;4.360;2023-07-28T07:45:29;22.10;99.90
2391;DHT22;22957;50.824;4.360;2023-07-28T07:47:55;22.30;99.90
2391;DHT22;22957;50.824;4.360;2023-07-28T07:50:20;22.00;99.90
2391;DHT22;22957;50.824;4.360;2023-07-28T07:52:47;22.00;99.90
2391;DHT22;22957;50.824;4.360;2023-07-28T07:55:13;22.10;99.90
2391;DHT22;22957;50.824;4.360;2023-07-28T07:57:39;22.10;99.90
2391;DHT22;22957;50.824;4.360;2023-07-28T08:00:05;22.20;99.90
2391;DHT22;22957;50.824;4.360;2023-07-28T08:02:31;22.40;99.90
2391;DHT22;22957;50.824;4.360;2023-07-28T08:04:57;22.50;99.90
2391;DHT22;22957;50.824;4.360;2023-07-28T08:07:22;22.40;99.90
2391;DHT22;22957;50.824;4.360;2023-07-28T08:09:49;22.10;99.90
2391;DHT22;22957;50.824;4.360;2023-07-28T08:12:15;22.40;99.90
2391;DHT22;22957;50.824;4.360;2023-07-28T08:14:41;22.40;99.90
2391;DHT22;22957;50.824;4.360;2023-07-28T08:17:08;22.50;99.90
2391;DHT22;22957;50.824;4.360;2023-07-28T08:19:34;22.40;99.90
2391;DHT22;22957;50.824;4.360;2023-07-28T08:21:59;22.60;99.90
2391;DHT22;22957;50.824;4.360;2023-07-28T08:24:25;22.50;99.90
2391;DHT22;22957;50.824;4.360;2023-07-28T08:26:50;22.70;99.90
2391;DHT22;22957;50.824;4.360;2023-07-28T08:29:16;22.80;99.90
2391;DHT22;22957;50.824;4.360;2023-07-28T08:31:41;23.10;99.90
2391;DHT22;22957;50.824;4.360;2023-07-28T08:34:08;23.20;99.90
2391;DHT22;22957;50.824;4.360;2023-07-28T08:36:33;23.10;99.90
2391;DHT22;22957;50.824;4.360;2023-07-28T08:38:59;22.80;99.90
2391;DHT22;22957;50.824;4.360;2023-07-28T08:41:25;22.80;99.90
2391;DHT22;22957;50.824;4.360;2023-07-28T08:43:51;22.70;99.90
2391;DHT22;22957;50.824;4.360;2023-07-28T08:46:19;22.70;99.90
2391;DHT22;22957;50.824;4.360;2023-07-28T08:48:45;22.70;99.90
2391;DHT22;22957;50.824;4.360;2023-07-28T08:51:12;22.80;99.90
2391;DHT22;22957;50.824;4.360;2023-07-28T08:53:38;22.80;99.90
2391;DHT22;22957;50.824;4.360;2023-07-28T08:56:05;22.70;99.90
2391;DHT22;22957;50.824;4.360;2023-07-28T08:58:30;22.60;99.90
2391;DHT22;22957;50.824;4.360;2023-07-28T09:00:56;22.90;99.90
2391;DHT22;22957;50.824;4.360;2023-07-28T09:03:26;23.00;99.90
2391;DHT22;22957;50.824;4.360;2023-07-28T09:06:01;23.20;99.90
2391;DHT22;22957;50.824;4.360;2023-07-28T09:08:28;23.10;99.90
2391;DHT22;22957;50.824;4.360;2023-07-28T09:10:55;23.20;99.90
2391;DHT22;22957;50.824;4.360;2023-07-28T09:13:21;23.20;99.90
2391;DHT22;22957;50.824;4.360;2023-07-28T09:15:47;23.20;99.90
2391;DHT22;22957;50.824;4.360;2023-07-28T09:18:14;23.10;99.90
2391;DHT22;22957;50.824;4.360;2023-07-28T09:20:41;23.10;99.90
2391;DHT22;22957;50.824;4.360;2023-07-28T09:23:08;23.00;99.90
2391;DHT22;22957;50.824;4.360;2023-07-28T09:25:38;23.10;99.90
2391;DHT22;22957;50.824;4.360;2023-07-28T09:28:04;22.90;99.90
2391;DHT22;22957;50.824;4.360;2023-07-28T09:30:49;23.00;99.90
2391;DHT22;22957;50.824;4.360;2023-07-28T09:33:29;22.80;99.90
2391;DHT22;22957;50.824;4.360;2023-07-28T09:35:55;23.00;99.90
2391;DHT22;22957;50.824;4.360;2023-07-28T09:38:21;23.00;99.90
2391;DHT22;22957;50.824;4.360;2023-07-28T09:40:47;23.20;99.90
2391;DHT22;22957;50.824;4.360;2023-07-28T09:43:14;23.40;99.90
2391;DHT22;22957;50.824;4.360;2023-07-28T09:45:40;23.80;99.90
2391;DHT22;22957;50.824;4.360;2023-07-28T09:48:06;23.80;99.90
2391;DHT22;22957;50.824;4.360;2023-07-28T09:50:37;23.10;99.90
2391;DHT22;22957;50.824;4.360;2023-07-28T09:53:03;22.90;99.90
2391;DHT22;22957;50.824;4.360;2023-07-28T09:55:29;22.70;99.90
2391;DHT22;22957;50.824;4.360;2023-07-28T09:57:58;23.10;99.90
2391;DHT22;22957;50.824;4.360;2023-07-28T10:00:26;23.30;99.90
2391;DHT22;22957;50.824;4.360;2023-07-28T10:02:53;23.50;99.90
2391;DHT22;22957;50.824;4.360;2023-07-28T10:05:19;24.00;99.90
2391;DHT22;22957;50.824;4.360;2023-07-28T10:07:48;24.40;99.90
2391;DHT22;22957;50.824;4.360;2023-07-28T10:10:14;24.30;99.90
2391;DHT22;22957;50.824;4.360;2023-07-28T10:15:07;24.90;99.90
2391;DHT22;22957;50.824;4.360;2023-07-28T10:17:34;25.10;99.90
2391;DHT22;22957;50.824;4.360;2023-07-28T10:20:09;25.00;99.90
2391;DHT22;22957;50.824;4.360;2023-07-28T10:22:53;24.40;99.90
2391;DHT22;22957;50.824;4.360;2023-07-28T10:25:25;24.80;99.90
2391;DHT22;22957;50.824;4.360;2023-07-28T10:27:51;24.70;99.90
2391;DHT22;22957;50.824;4.360;2023-07-28T10:30:17;24.90;99.90
2391;DHT22;22957;50.824;4.360;2023-07-28T10:32:44;25.20;99.90
2391;DHT22;22957;50.824;4.360;2023-07-28T10:37:39;25.70;99.90
2391;DHT22;22957;50.824;4.360;2023-07-28T10:42:52;25.70;99.90
2391;DHT22;22957;50.824;4.360;2023-07-28T10:45:19;26.10;99.90
2391;DHT22;22957;50.824;4.360;2023-07-28T10:47:45;26.70;99.90
2391;DHT22;22957;50.824;4.360;2023-07-28T10:50:13;27.10;99.90
2391;DHT22;22957;50.824;4.360;2023-07-28T10:52:42;26.80;99.90
2391;DHT22;22957;50.824;4.360;2023-07-28T10:55:16;26.70;99.90
2391;DHT22;22957;50.824;4.360;2023-07-28T10:57:43;26.70;99.90
2391;DHT22;22957;50.824;4.360;2023-07-28T11:00:10;26.20;99.90
2391;DHT22;22957;50.824;4.360;2023-07-28T11:02:50;26.30;99.90
2391;DHT22;22957;50.824;4.360;2023-07-28T11:05:25;26.10;99.90
2391;DHT22;22957;50.824;4.360;2023-07-28T11:07:54;26.20;99.90
2391;DHT22;22957;50.824;4.360;2023-07-28T11:10:20;26.10;99.90
2391;DHT22;22957;50.824;4.360;2023-07-28T11:12:47;26.40;99.90
2391;DHT22;22957;50.824;4.360;2023-07-28T11:15:15;26.70;99.90
2391;DHT22;22957;50.824;4.360;2023-07-28T11:17:42;27.30;99.90
2391;DHT22;22957;50.824;4.360;2023-07-28T11:20:24;27.70;99.90
2391;DHT22;22957;50.824;4.360;2023-07-28T11:22:58;28.10;99.90
2391;DHT22;22957;50.824;4.360;2023-07-28T11:25:25;28.20;99.90
2391;DHT22;22957;50.824;4.360;2023-07-28T11:27:51;27.90;99.90
2391;DHT22;22957;50.824;4.360;2023-07-28T11:30:18;27.90;99.90
2391;DHT22;22957;50.824;4.360;2023-07-28T11:32:47;27.50;99.90
2391;DHT22;22957;50.824;4.360;2023-07-28T11:35:15;27.50;99.90
2391;DHT22;22957;50.824;4.360;2023-07-28T11:37:43;27.50;99.90
2391;DHT22;22957;50.824;4.360;2023-07-28T11:40:10;28.20;99.90
2391;DHT22;22957;50.824;4.360;2023-07-28T11:42:55;28.80;99.90
2391;DHT22;22957;50.824;4.360;2023-07-28T11:45:22;29.30;99.90
2391;DHT22;22957;50.824;4.360;2023-07-28T11:48:00;28.60;99.90
2391;DHT22;22957;50.824;4.360;2023-07-28T11:50:30;28.50;99.90
2391;DHT22;22957;50.824;4.360;2023-07-28T11:52:59;28.50;99.90
2391;DHT22;22957;50.824;4.360;2023-07-28T11:55:25;27.50;99.90
2391;DHT22;22957;50.824;4.360;2023-07-28T11:57:54;28.00;99.90
2391;DHT22;22957;50.824;4.360;2023-07-28T12:00:28;28.00;99.90
2391;DHT22;22957;50.824;4.360;2023-07-28T12:03:05;28.60;99.90
2391;DHT22;22957;50.824;4.360;2023-07-28T12:05:32;28.30;99.90
2391;DHT22;22957;50.824;4.360;2023-07-28T12:07:58;28.80;99.90
2391;DHT22;22957;50.824;4.360;2023-07-28T12:10:24;28.80;99.90
2391;DHT22;22957;50.824;4.360;2023-07-28T12:12:50;28.30;99.90
2391;DHT22;22957;50.824;4.360;2023-07-28T12:18:15;27.70;99.90
2391;DHT22;22957;50.824;4.360;2023-07-28T12:20:42;27.60;99.90
2391;DHT22;22957;50.824;4.360;2023-07-28T12:23:16;28.10;99.90
2391;DHT22;22957;50.824;4.360;2023-07-28T12:25:42;28.50;99.90
2391;DHT22;22957;50.824;4.360;2023-07-28T12:28:08;28.80;99.90
2391;DHT22;22957;50.824;4.360;2023-07-28T12:30:34;29.40;99.90
2391;DHT22;22957;50.824;4.360;2023-07-28T12:33:00;29.90;99.90
2391;DHT22;22957;50.824;4.360;2023-07-28T12:35:26;30.10;99.90
2391;DHT22;22957;50.824;4.360;2023-07-28T12:37:53;30.30;99.90
2391;DHT22;22957;50.824;4.360;2023-07-28T12:40:19;29.90;99.90
2391;DHT22;22957;50.824;4.360;2023-07-28T12:42:45;30.30;99.90
2391;DHT22;22957;50.824;4.360;2023-07-28T12:45:12;29.60;99.90
2391;DHT22;22957;50.824;4.360;2023-07-28T12:47:38;29.10;99.90
2391;DHT22;22957;50.824;4.360;2023-07-28T12:50:04;28.40;99.90
2391;DHT22;22957;50.824;4.360;2023-07-28T12:52:32;28.50;99.90
2391;DHT22;22957;50.824;4.360;2023-07-28T12:54:57;29.30;99.90
2391;DHT22;22957;50.824;4.360;2023-07-28T12:57:24;30.40;99.90
2391;DHT22;22957;50.824;4.360;2023-07-28T12:59:49;30.40;99.90
2391;DHT22;22957;50.824;4.360;2023-07-28T13:02:17;30.70;99.90
2391;DHT22;22957;50.824;4.360;2023-07-28T13:04:42;30.00;99.90
2391;DHT22;22957;50.824;4.360;2023-07-28T13:07:08;30.60;99.90
2391;DHT22;22957;50.824;4.360;2023-07-28T13:09:33;31.00;99.90
2391;DHT22;22957;50.824;4.360;2023-07-28T13:11:59;30.20;99.90
2391;DHT22;22957;50.824;4.360;2023-07-28T13:14:25;29.70;99.90
2391;DHT22;22957;50.824;4.360;2023-07-28T13:16:50;29.00;99.90
2391;DHT22;22957;50.824;4.360;2023-07-28T13:19:16;28.40;99.90
2391;DHT22;22957;50.824;4.360;2023-07-28T13:21:42;28.40;99.90
2391;DHT22;22957;50.824;4.360;2023-07-28T13:24:07;28.80;99.90
2391;DHT22;22957;50.824;4.360;2023-07-28T13:26:33;28.50;99.90
2391;DHT22;22957;50.824;4.360;2023-07-28T13:28:58;28.10;99.90
2391;DHT22;22957;50.824;4.360;2023-07-28T13:31:27;27.90;99.90
2391;DHT22;22957;50.824;4.360;2023-07-28T13:33:53;27.50;99.90
2391;DHT22;22957;50.824;4.360;2023-07-28T13:36:18;27.40;99.90
2391;DHT22;22957;50.824;4.360;2023-07-28T13:38:44;27.90;99.90
2391;DHT22;22957;50.824;4.360;2023-07-28T13:41:10;28.80;99.90
2391;DHT22;22957;50.824;4.360;2023-07-28T13:43:35;29.10;99.90
2391;DHT22;22957;50.824;4.360;2023-07-28T13:46:06;29.80;99.90
2391;DHT22;22957;50.824;4.360;2023-07-28T13:48:32;29.80;99.90
2391;DHT22;22957;50.824;4.360;2023-07-28T13:50:58;30.20;99.90
2391;DHT22;22957;50.824;4.360;2023-07-28T13:53:24;30.60;99.90
2391;DHT22;22957;50.824;4.360;2023-07-28T13:55:50;30.00;99.90
2391;DHT22;22957;50.824;4.360;2023-07-28T13:58:15;29.60;99.90
2391;DHT22;22957;50.824;4.360;2023-07-28T14:00:41;29.20;99.90
2391;DHT22;22957;50.824;4.360;2023-07-28T14:03:07;29.60;99.90
2391;DHT22;22957;50.824;4.360;2023-07-28T14:05:32;29.70;99.90
2391;DHT22;22957;50.824;4.360;2023-07-28T14:07:58;29.50;99.90
2391;DHT22;22957;50.824;4.360;2023-07-28T14:10:23;28.50;99.90
2391;DHT22;22957;50.824;4.360;2023-07-28T14:12:50;28.70;99.90
2391;DHT22;22957;50.824;4.360;2023-07-28T14:15:15;29.00;99.90
2391;DHT22;22957;50.824;4.360;2023-07-28T14:17:41;28.50;99.90
2391;DHT22;22957;50.824;4.360;2023-07-28T14:20:07;28.30;99.90
2391;DHT22;22957;50.824;4.360;2023-07-28T14:22:33;28.30;99.90
2391;DHT22;22957;50.824;4.360;2023-07-28T14:24:59;28.00;99.90
2391;DHT22;22957;50.824;4.360;2023-07-28T14:27:24;28.30;99.90
2391;DHT22;22957;50.824;4.360;2023-07-28T14:29:50;28.50;99.90
2391;DHT22;22957;50.824;4.360;2023-07-28T14:32:16;28.90;99.90
2391;DHT22;22957;50.824;4.360;2023-07-28T14:34:41;28.60;99.90
2391;DHT22;22957;50.824;4.360;2023-07-28T14:37:07;28.80;99.90
2391;DHT22;22957;50.824;4.360;2023-07-28T14:39:32;29.10;99.90
2391;DHT22;22957;50.824;4.360;2023-07-28T14:41:58;29.40;99.90
2391;DHT22;22957;50.824;4.360;2023-07-28T14:44:23;29.70;99.90
2391;DHT22;22957;50.824;4.360;2023-07-28T14:46:49;29.60;99.90
2391;DHT22;22957;50.824;4.360;2023-07-28T14:49:15;29.60;99.90
2391;DHT22;22957;50.824;4.360;2023-07-28T14:51:40;29.40;99.90
2391;DHT22;22957;50.824;4.360;2023-07-28T14:54:06;29.20;99.90
2391;DHT22;22957;50.824;4.360;2023-07-28T14:56:32;28.70;99.90
2391;DHT22;22957;50.824;4.360;2023-07-28T14:58:58;28.60;99.90
2391;DHT22;22957;50.824;4.360;2023-07-28T15:01:26;28.70;99.90
2391;DHT22;22957;50.824;4.360;2023-07-28T15:03:52;28.60;99.90
2391;DHT22;22957;50.824;4.360;2023-07-28T15:06:17;28.60;99.90
2391;DHT22;22957;50.824;4.360;2023-07-28T15:08:43;28.50;99.90
2391;DHT22;22957;50.824;4.360;2023-07-28T15:11:08;28.50;99.90
2391;DHT22;22957;50.824;4.360;2023-07-28T15:13:34;28.80;99.90
2391;DHT22;22957;50.824;4.360;2023-07-28T15:16:00;28.50;99.90
2391;DHT22;22957;50.824;4.360;2023-07-28T15:18:25;28.50;99.90
2391;DHT22;22957;50.824;4.360;2023-07-28T15:20:51;28.70;99.90
2391;DHT22;22957;50.824;4.360;2023-07-28T15:23:17;28.90;99.90
2391;DHT22;22957;50.824;4.360;2023-07-28T15:25:43;28.90;99.90
2391;DHT22;22957;50.824;4.360;2023-07-28T15:28:12;29.50;99.90
2391;DHT22;22957;50.824;4.360;2023-07-28T15:30:38;29.80;99.90
2391;DHT22;22957;50.824;4.360;2023-07-28T15:33:04;30.20;99.90
2391;DHT22;22957;50.824;4.360;2023-07-28T15:35:30;29.80;99.90
2391;DHT22;22957;50.824;4.360;2023-07-28T15:37:55;30.00;99.90
2391;DHT22;22957;50.824;4.360;2023-07-28T15:40:21;29.80;99.90
2391;DHT22;22957;50.824;4.360;2023-07-28T15:42:46;30.10;99.90
2391;DHT22;22957;50.824;4.360;2023-07-28T15:45:12;29.50;99.90
2391;DHT22;22957;50.824;4.360;2023-07-28T15:47:38;29.50;99.90
2391;DHT22;22957;50.824;4.360;2023-07-28T15:50:04;29.80;99.90
2391;DHT22;22957;50.824;4.360;2023-07-28T15:52:32;29.60;99.90